KFFL/FFL METAR and TAF weather

Enter ICAO airport designator
Station Type Date Time Source
KFFL METAR 2021/05/11 00:55 UTC NOAA

KFFL 110055Z AUTO 05007KT 10SM SCT110 13/07 A3013 RMK A01


Station Type Date Time Source
KFFL Decoded METAR 2021/05/11 00:55 UTC NOAA

Fair Field, IA, United States (KFFL) 41-03N 091-59W
May 10, 2021 - 08:55 PM EDT / 2021.05.11 0055 UTC
Wind: from the NE (050 degrees) at 8 MPH (7 KT):0
Visibility: 10 mile(s):0
Sky conditions: partly cloudy
Temperature: 55 F (13 C)
Dew Point: 44 F (7 C)
Relative Humidity: 66%
Pressure (altimeter): 30.13 in. Hg (1020 hPa)
ob: KFFL 110055Z AUTO 05007KT 10SM SCT110 13/07 A3013 RMK A01
cycle: 1

Station Type Date Time Source
KFFL TAF UTC NOAA

Error!

Example: see airport list